Time;durP1;ratioP1;P1;durP2;ratioP2;P2;SDS_P1;SDS_P2;PMS_P1;PMS_P2;Temp;Humidity;BMP_temperature;BMP_pressure;BME280_temperature;BME280_humidity;BME280_pressure;Samples;Min_cycle;Max_cycle;Signal;HPM_P1;HPM_P2
2021/12/02 00:02:19;;;;;;;8.75;0.70;;;4.00;99.90;;;;;;5054850;28;20067;-83
2021/12/02 00:04:45;;;;;;;9.25;1.02;;;4.00;99.90;;;;;;5088031;28;20407;-84
2021/12/02 00:07:11;;;;;;;9.13;1.00;;;3.90;99.90;;;;;;5053541;28;20040;-83
2021/12/02 00:09:38;;;;;;;10.35;0.73;;;3.90;99.90;;;;;;5069237;28;20406;-83
2021/12/02 00:12:06;;;;;;;12.32;0.77;;;3.90;99.90;;;;;;5066692;28;20170;-83
2021/12/02 00:14:46;;;;;;;8.68;0.82;;;3.80;99.90;;;;;;5067999;28;20483;-83
2021/12/02 00:17:21;;;;;;;9.02;0.60;;;3.80;99.90;;;;;;5069114;28;20048;-83
2021/12/02 00:22:39;;;;;;;6.95;0.75;;;3.70;99.90;;;;;;5067374;28;20052;-83
2021/12/02 00:25:05;;;;;;;4.13;1.05;;;3.70;99.90;;;;;;5066694;28;20471;-84
2021/12/02 00:27:32;;;;;;;6.18;0.57;;;3.60;99.90;;;;;;5086276;28;20044;-83
2021/12/02 00:30:00;;;;;;;9.15;0.80;;;3.60;99.90;;;;;;5066939;28;20074;-83
2021/12/02 00:32:30;;;;;;;13.50;1.55;;;3.50;99.90;;;;;;5067293;28;20519;-83
2021/12/02 00:34:57;;;;;;;2.80;0.70;;;3.50;99.90;;;;;;5033605;28;20127;-84
2021/12/02 00:37:23;;;;;;;3.80;0.70;;;3.40;99.90;;;;;;5066287;28;20040;-83
2021/12/02 00:39:52;;;;;;;7.50;0.52;;;3.40;99.90;;;;;;5067048;28;20173;-83
2021/12/02 00:42:18;;;;;;;10.15;1.05;;;3.50;99.90;;;;;;5084602;28;20040;-83
2021/12/02 00:44:44;;;;;;;6.68;1.27;;;3.50;99.90;;;;;;5085917;28;20059;-83
2021/12/02 00:47:10;;;;;;;10.20;0.60;;;3.50;99.90;;;;;;5084392;28;20498;-83
2021/12/02 00:49:36;;;;;;;5.55;0.77;;;3.50;99.90;;;;;;5067630;28;20040;-83
2021/12/02 00:52:03;;;;;;;1.58;0.35;;;3.60;99.90;;;;;;5050348;28;20047;-83
2021/12/02 00:54:30;;;;;;;5.07;0.57;;;3.60;99.90;;;;;;5066698;28;20054;-83
2021/12/02 00:56:57;;;;;;;5.03;0.70;;;2.70;99.90;;;;;;5066781;28;20135;-84
2021/12/02 00:59:23;;;;;;;5.85;0.63;;;3.70;99.90;;;;;;5066096;28;20119;-83
2021/12/02 01:01:51;;;;;;;6.90;0.57;;;3.70;99.90;;;;;;5085579;28;20038;-83
2021/12/02 01:04:22;;;;;;;8.25;0.80;;;3.70;99.90;;;;;;5065241;28;20060;-83
2021/12/02 01:06:48;;;;;;;6.82;0.55;;;4.80;99.90;;;;;;5050235;28;20080;-83
2021/12/02 01:09:14;;;;;;;6.47;0.90;;;3.70;99.90;;;;;;5066256;28;20054;-83
2021/12/02 01:11:41;;;;;;;6.22;0.57;;;4.90;99.90;;;;;;5066001;28;20127;-83
2021/12/02 01:14:08;;;;;;;5.38;0.50;;;3.80;99.90;;;;;;5067232;28;20409;-84
2021/12/02 01:16:35;;;;;;;1.45;0.30;;;3.80;99.90;;;;;;5065686;28;20580;-83
2021/12/02 01:19:02;;;;;;;4.72;0.60;;;3.90;99.90;;;;;;5067590;28;20043;-83
2021/12/02 01:21:28;;;;;;;2.08;0.20;;;3.90;99.90;;;;;;5084187;28;20044;-83
2021/12/02 01:24:03;;;;;;;3.85;0.60;;;3.90;99.90;;;;;;5085021;28;20104;-84
2021/12/02 01:26:31;;;;;;;5.60;0.70;;;3.90;99.90;;;;;;5084705;28;20377;-84
2021/12/02 01:28:58;;;;;;;2.28;0.30;;;3.90;99.90;;;;;;5066293;28;20048;-84
2021/12/02 01:31:30;;;;;;;5.80;0.73;;;4.00;99.90;;;;;;5050442;28;20123;-83
2021/12/02 01:33:56;;;;;;;3.53;0.65;;;4.00;99.90;;;;;;5065858;28;20132;-84
2021/12/02 01:36:24;;;;;;;3.47;0.40;;;4.00;99.90;;;;;;5085609;28;20407;-84
2021/12/02 01:38:51;;;;;;;1.73;0.50;;;4.00;99.90;;;;;;5083992;28;20040;-83
2021/12/02 01:41:17;;;;;;;3.22;0.65;;;4.00;99.90;;;;;;5066175;28;20055;-83
2021/12/02 01:43:51;;;;;;;2.85;0.40;;;3.90;99.90;;;;;;5066096;28;20052;-83
2021/12/02 01:46:18;;;;;;;;;;;3.90;99.90;;;;;;5049334;28;20087;-84
2021/12/02 01:48:58;;;;;;;6.18;0.63;;;3.90;99.90;;;;;;5070779;28;20349;-83
2021/12/02 01:51:27;;;;;;;3.72;0.43;;;3.80;99.90;;;;;;5069185;28;20051;-84
2021/12/02 01:54:03;;;;;;;2.15;0.38;;;3.80;99.90;;;;;;5070557;28;20044;-83
2021/12/02 01:56:31;;;;;;;3.42;0.43;;;3.80;99.90;;;;;;5070892;28;20075;-83
2021/12/02 01:59:09;;;;;;;3.20;0.30;;;3.80;99.90;;;;;;5070066;28;20060;-83
2021/12/02 02:01:39;;;;;;;3.92;0.70;;;3.70;99.90;;;;;;5089750;28;20044;-84
2021/12/02 02:04:05;;;;;;;7.57;0.60;;;3.70;99.90;;;;;;5090117;28;20052;-83
2021/12/02 02:06:37;;;;;;;2.85;0.30;;;3.70;99.90;;;;;;5071051;28;20154;-84
2021/12/02 02:09:04;;;;;;;6.30;0.47;;;3.70;99.90;;;;;;5071330;28;20123;-83
2021/12/02 02:11:31;;;;;;;3.20;0.60;;;3.60;99.90;;;;;;5072555;28;20052;-83
2021/12/02 02:13:58;;;;;;;3.10;0.70;;;3.60;99.90;;;;;;5073461;28;20048;-83
2021/12/02 02:16:25;;;;;;;8.48;0.70;;;3.60;99.90;;;;;;5054631;28;20178;-83
2021/12/02 02:18:53;;;;;;;4.25;0.60;;;3.60;99.90;;;;;;5056264;28;20044;-83
2021/12/02 02:21:22;;;;;;;4.65;0.50;;;3.50;99.90;;;;;;5072175;28;20453;-83
2021/12/02 02:24:12;;;;;;;3.67;0.30;;;3.50;99.90;;;;;;5073248;28;20131;-83
2021/12/02 02:26:38;;;;;;;5.78;0.60;;;3.50;99.90;;;;;;5071331;28;20399;-83
2021/12/02 02:29:06;;;;;;;10.05;0.60;;;3.50;99.90;;;;;;5035209;28;20079;-83
2021/12/02 02:31:35;;;;;;;1.48;0.30;;;3.40;99.90;;;;;;5070567;28;20036;-83
2021/12/02 02:34:01;;;;;;;2.25;0.30;;;3.50;99.90;;;;;;5068421;28;20507;-83
2021/12/02 02:36:34;;;;;;;6.28;0.50;;;3.50;99.90;;;;;;5069500;28;20039;-82
2021/12/02 02:39:02;;;;;;;4.28;0.40;;;3.50;99.90;;;;;;5051963;28;20044;-83
2021/12/02 02:41:41;;;;;;;2.30;0.50;;;3.60;99.90;;;;;;5087285;28;20050;-82
2021/12/02 02:44:08;;;;;;;4.10;0.20;;;3.60;99.90;;;;;;5069514;28;20047;-82
2021/12/02 02:46:38;;;;;;;8.25;0.60;;;3.60;99.90;;;;;;5067751;28;20048;-82
2021/12/02 02:49:07;;;;;;;5.65;0.40;;;3.60;99.90;;;;;;5069836;28;20044;-82
2021/12/02 02:51:33;;;;;;;6.63;0.55;;;3.60;99.90;;;;;;5051600;28;20052;-82
2021/12/02 02:54:04;;;;;;;2.28;0.40;;;3.70;99.90;;;;;;5052161;28;20089;-82
2021/12/02 02:56:33;;;;;;;2.65;0.40;;;3.70;99.90;;;;;;5087414;28;20118;-82
2021/12/02 03:01:35;;;;;;;4.45;0.32;;;3.70;99.90;;;;;;5069288;28;20498;-82
2021/12/02 03:07:03;;;;;;;0.88;0.28;;;3.70;99.90;;;;;;5068833;28;20148;-83
2021/12/02 03:12:15;;;;;;;3.47;0.73;;;3.60;99.90;;;;;;5051638;28;20136;-83
2021/12/02 03:17:10;;;;;;;2.85;0.30;;;3.60;99.90;;;;;;5067941;28;20468;-82
2021/12/02 03:19:40;;;;;;;4.20;0.20;;;3.50;99.90;;;;;;5087214;28;20071;-82
2021/12/02 03:22:07;;;;;;;1.65;0.10;;;3.50;99.90;;;;;;5068186;28;20087;-82
2021/12/02 03:24:33;;;;;;;0.20;0.10;;;3.40;99.90;;;;;;5067580;28;20054;-82
2021/12/02 03:26:59;;;;;;;0.20;0.10;;;3.30;99.90;;;;;;5052288;28;20044;-82
2021/12/02 03:29:25;;;;;;;1.00;0.10;;;3.20;99.90;;;;;;5067294;28;20154;-82
2021/12/02 03:31:50;;;;;;;0.98;0.20;;;3.10;99.90;;;;;;5068625;28;20055;-82
2021/12/02 03:34:19;;;;;;;3.17;0.30;;;3.00;99.90;;;;;;5067160;28;20043;-82
2021/12/02 03:36:52;;;;;;;0.90;0.20;;;3.10;99.90;;;;;;5068517;28;20059;-82
2021/12/02 03:39:19;;;;;;;0.15;0.10;;;2.80;99.90;;;;;;5051407;28;20528;-82
2021/12/02 03:41:45;;;;;;;3.75;0.13;;;2.80;99.90;;;;;;5067234;28;20119;-82
2021/12/02 03:44:11;;;;;;;4.68;0.20;;;2.70;99.90;;;;;;5051890;28;20154;-82
2021/12/02 03:46:38;;;;;;;2.03;0.20;;;2.60;99.90;;;;;;5067456;28;20130;-82
2021/12/02 03:49:04;;;;;;;3.10;0.10;;;2.60;99.90;;;;;;5052602;28;20047;-82
2021/12/02 03:51:30;;;;;;;2.85;0.10;;;3.10;99.90;;;;;;5050333;28;20044;-83
2021/12/02 03:53:57;;;;;;;0.20;0.10;;;2.60;99.90;;;;;;5051157;28;20051;-82
2021/12/02 03:56:23;;;;;;;0.52;0.20;;;2.60;99.90;;;;;;5051802;28;20059;-82
2021/12/02 03:58:50;;;;;;;0.90;0.20;;;4.10;99.90;;;;;;5066982;28;20040;-82
2021/12/02 04:01:17;;;;;;;2.95;0.20;;;4.00;99.90;;;;;;5068289;28;20130;-82
2021/12/02 04:03:43;;;;;;;1.35;0.30;;;3.50;99.90;;;;;;5066892;28;20407;-82
2021/12/02 04:06:10;;;;;;;1.23;0.00;;;2.50;99.90;;;;;;5051577;28;20040;-82
2021/12/02 04:16:17;;;;;;;0.30;0.13;;;2.40;99.90;;;;;;5066770;28;20369;-83
2021/12/02 04:18:43;;;;;;;0.60;0.20;;;2.40;99.90;;;;;;5051657;28;20044;-83
2021/12/02 04:21:08;;;;;;;3.70;0.20;;;2.40;99.90;;;;;;5066943;28;20040;-83
2021/12/02 04:23:34;;;;;;;2.28;0.40;;;2.50;99.90;;;;;;5051174;28;20471;-83
2021/12/02 04:26:00;;;;;;;0.08;0.08;;;3.90;99.90;;;;;;5087899;28;20040;-82
2021/12/02 04:28:25;;;;;;;0.70;0.20;;;4.20;99.90;;;;;;5036225;28;20052;-83
2021/12/02 04:30:51;;;;;;;3.50;0.20;;;2.50;99.90;;;;;;5088751;28;20075;-82
2021/12/02 04:33:17;;;;;;;0.47;0.13;;;2.50;99.90;;;;;;5069234;28;20403;-83
2021/12/02 04:35:42;;;;;;;0.88;0.20;;;2.50;99.90;;;;;;5088635;28;20054;-83
2021/12/02 04:38:08;;;;;;;1.58;0.50;;;2.60;99.90;;;;;;5068650;28;20122;-82
2021/12/02 04:40:36;;;;;;;3.30;0.30;;;2.60;99.90;;;;;;5067446;28;20051;-81
2021/12/02 04:43:02;;;;;;;0.10;0.10;;;3.80;99.90;;;;;;5050583;28;20079;-82
2021/12/02 04:45:28;;;;;;;0.77;0.10;;;2.50;99.90;;;;;;5050406;28;20040;-83
2021/12/02 04:47:54;;;;;;;0.70;0.15;;;2.50;99.90;;;;;;5033945;28;20453;-83
2021/12/02 04:50:20;;;;;;;3.58;0.38;;;2.50;99.90;;;;;;5066024;28;20087;-83
2021/12/02 04:52:46;;;;;;;0.20;0.20;;;2.40;99.90;;;;;;5067922;28;20040;-83
2021/12/02 04:55:11;;;;;;;1.00;0.20;;;2.40;99.90;;;;;;5084565;28;20487;-83
2021/12/02 04:57:37;;;;;;;0.45;0.10;;;2.30;99.90;;;;;;5050673;28;20542;-83
2021/12/02 05:00:05;;;;;;;1.75;0.40;;;2.30;99.90;;;;;;5049348;28;20040;-83
2021/12/02 05:02:30;;;;;;;1.55;0.10;;;2.30;99.90;;;;;;5049999;28;20051;-83
2021/12/02 05:04:56;;;;;;;1.20;0.20;;;2.30;99.90;;;;;;5084619;28;20059;-83
2021/12/02 05:07:22;;;;;;;2.65;0.17;;;2.90;99.90;;;;;;5066577;28;20080;-83
2021/12/02 05:09:47;;;;;;;3.45;0.20;;;2.30;99.90;;;;;;5067356;28;20457;-82
2021/12/02 05:12:13;;;;;;;0.25;0.10;;;2.90;99.90;;;;;;5049985;28;20040;-83
2021/12/02 05:14:39;;;;;;;3.00;0.15;;;2.30;99.90;;;;;;5067290;28;20043;-83
2021/12/02 05:17:05;;;;;;;0.85;0.22;;;3.10;99.90;;;;;;5066199;28;20170;-83
2021/12/02 05:19:30;;;;;;;3.60;0.30;;;4.00;99.90;;;;;;5049928;28;20047;-83
2021/12/02 05:21:56;;;;;;;5.13;0.13;;;2.30;99.90;;;;;;5050901;28;20130;-82
2021/12/02 05:24:22;;;;;;;3.70;0.40;;;2.30;99.90;;;;;;5070066;28;20410;-82
2021/12/02 05:26:47;;;;;;;0.90;0.10;;;2.30;99.90;;;;;;5071063;28;20048;-83
2021/12/02 05:29:13;;;;;;;1.10;0.17;;;3.30;99.90;;;;;;5070088;28;20043;-82
2021/12/02 05:31:39;;;;;;;7.65;0.40;;;2.40;99.90;;;;;;5089750;28;20506;-82
2021/12/02 05:34:05;;;;;;;2.03;0.70;;;4.30;99.90;;;;;;5070142;28;20068;-82
2021/12/02 05:36:30;;;;;;;2.08;0.15;;;2.40;99.90;;;;;;5070222;28;20040;-82
2021/12/02 05:38:56;;;;;;;2.67;0.30;;;2.40;99.90;;;;;;5070045;28;20044;-82
2021/12/02 05:41:22;;;;;;;3.47;0.17;;;2.40;99.90;;;;;;5070035;28;20047;-83
2021/12/02 05:43:48;;;;;;;1.90;0.40;;;2.10;99.90;;;;;;5070539;28;20116;-83
2021/12/02 05:46:14;;;;;;;0.28;0.20;;;2.40;99.90;;;;;;5072070;28;20509;-82
2021/12/02 05:48:40;;;;;;;0.85;0.20;;;1.80;99.90;;;;;;5050804;28;20040;-83
2021/12/02 05:51:06;;;;;;;4.15;0.30;;;2.40;99.90;;;;;;5032981;28;20044;-84
2021/12/02 05:53:32;;;;;;;0.40;0.15;;;2.40;99.90;;;;;;5051141;28;20361;-88
2021/12/02 05:55:58;;;;;;;2.03;0.13;;;2.40;99.90;;;;;;5000260;28;20475;-87
2021/12/02 05:58:23;;;;;;;1.08;0.20;;;2.40;99.90;;;;;;5033173;28;20041;-86
2021/12/02 06:00:50;;;;;;;0.65;0.20;;;2.70;99.90;;;;;;5033253;28;20044;-82
2021/12/02 06:03:16;;;;;;;0.65;0.20;;;3.80;99.90;;;;;;5066939;28;20500;-83
2021/12/02 06:05:44;;;;;;;2.10;0.13;;;2.40;99.90;;;;;;5068212;28;20082;-83
2021/12/02 06:08:10;;;;;;;0.95;0.30;;;2.40;99.90;;;;;;5066807;28;20037;-83
2021/12/02 06:10:36;;;;;;;4.05;0.55;;;3.90;99.90;;;;;;5050197;28;20045;-83
2021/12/02 06:13:02;;;;;;;3.95;0.30;;;3.40;99.90;;;;;;5032392;28;20094;-84
2021/12/02 06:15:27;;;;;;;0.17;0.10;;;2.30;99.90;;;;;;5049113;28;20174;-82
2021/12/02 06:17:53;;;;;;;0.35;0.20;;;2.30;99.90;;;;;;5049909;28;20052;-83
2021/12/02 06:20:19;;;;;;;3.22;0.20;;;2.20;99.90;;;;;;5032244;28;20049;-84
2021/12/02 06:22:46;;;;;;;2.45;0.30;;;2.30;99.90;;;;;;5050448;28;20051;-91
2021/12/02 06:27:51;;;;;;;0.13;0.10;;;2.20;99.90;;;;;;5067825;28;20052;-83
2021/12/02 06:30:18;;;;;;;0.10;0.10;;;2.20;99.90;;;;;;5070411;28;20040;-82
2021/12/02 06:32:44;;;;;;;1.15;0.20;;;2.20;99.90;;;;;;5056647;28;20610;-83
2021/12/02 06:35:11;;;;;;;1.70;0.20;;;2.30;99.90;;;;;;5069863;28;20139;-82
2021/12/02 06:37:37;;;;;;;2.78;1.05;;;2.90;99.90;;;;;;5069550;28;20564;-83
2021/12/02 06:40:04;;;;;;;4.15;0.30;;;2.20;99.90;;;;;;5071056;28;20146;-82
2021/12/02 06:42:30;;;;;;;2.92;0.50;;;2.20;99.90;;;;;;5068786;28;20530;-84
2021/12/02 06:44:57;;;;;;;1.30;0.20;;;4.00;99.90;;;;;;5069700;28;20040;-82
2021/12/02 06:47:40;;;;;;;0.63;0.30;;;2.20;99.90;;;;;;5069132;28;20085;-83
2021/12/02 06:50:09;;;;;;;4.10;0.40;;;2.20;99.90;;;;;;5052771;28;20426;-83
2021/12/02 06:52:36;;;;;;;2.70;0.50;;;2.20;99.90;;;;;;5070115;28;20048;-82
2021/12/02 06:55:03;;;;;;;1.17;0.30;;;2.20;99.90;;;;;;5069415;28;20989;-84
2021/12/02 06:57:29;;;;;;;0.47;0.17;;;1.40;99.90;;;;;;5052515;28;20518;-86
2021/12/02 06:59:54;;;;;;;3.88;0.50;;;2.10;99.90;;;;;;5067361;28;20044;-81
2021/12/02 07:02:20;;;;;;;1.25;0.32;;;2.20;99.90;;;;;;5067727;28;20093;-81
2021/12/02 07:04:46;;;;;;;0.47;0.20;;;2.10;99.90;;;;;;5067747;28;20067;-81
2021/12/02 07:07:12;;;;;;;0.73;0.38;;;2.10;99.90;;;;;;5049591;28;20047;-81
2021/12/02 07:09:37;;;;;;;1.52;0.20;;;2.10;99.90;;;;;;5019469;28;20209;-81
2021/12/02 07:12:03;;;;;;;0.47;0.30;;;2.00;99.90;;;;;;5068076;28;20135;-82
2021/12/02 07:14:29;;;;;;;0.95;0.45;;;2.00;99.90;;;;;;5069037;28;20044;-81
2021/12/02 07:16:57;;;;;;;2.00;0.68;;;3.80;99.90;;;;;;5047366;28;20044;-81
2021/12/02 07:19:24;;;;;;;7.43;3.30;;;1.90;99.90;;;;;;5049895;28;20090;-81
2021/12/02 07:21:50;;;;;;;10.50;5.50;;;1.90;99.90;;;;;;5051017;28;20131;-82
2021/12/02 07:24:17;;;;;;;12.77;4.65;;;3.80;99.90;;;;;;5066323;28;20115;-81
2021/12/02 07:27:01;;;;;;;2.92;1.15;;;1.90;99.90;;;;;;5066292;28;20101;-82
2021/12/02 07:29:26;;;;;;;1.83;0.80;;;3.50;99.90;;;;;;5047448;28;20048;-80
2021/12/02 07:31:53;;;;;;;3.35;0.85;;;1.80;99.90;;;;;;5068672;28;20063;-81
2021/12/02 07:34:23;;;;;;;2.33;0.60;;;1.90;99.90;;;;;;5050700;28;20052;-81
2021/12/02 07:36:51;;;;;;;4.07;0.40;;;1.80;99.90;;;;;;5067436;28;20040;-81
2021/12/02 07:39:18;;;;;;;0.70;0.50;;;1.90;99.90;;;;;;5067827;28;20044;-81
2021/12/02 07:41:44;;;;;;;1.85;0.47;;;1.90;99.90;;;;;;5067205;28;20040;-81
2021/12/02 07:44:11;;;;;;;0.60;0.30;;;1.80;99.90;;;;;;5068381;28;20094;-81
2021/12/02 07:46:37;;;;;;;2.40;1.00;;;1.80;99.90;;;;;;5050094;28;20098;-81
2021/12/02 07:49:03;;;;;;;1.80;0.85;;;2.10;99.90;;;;;;5049204;28;20429;-80
2021/12/02 07:51:32;;;;;;;2.55;0.95;;;1.80;99.90;;;;;;5050183;28;20083;-81
2021/12/02 07:53:58;;;;;;;1.60;0.90;;;2.00;99.90;;;;;;5049678;28;20043;-81
2021/12/02 07:56:24;;;;;;;4.72;1.33;;;1.80;99.90;;;;;;5050624;28;20473;-81
2021/12/02 07:58:50;;;;;;;4.05;1.92;;;1.80;99.90;;;;;;5033572;28;20052;-81
2021/12/02 08:01:17;;;;;;;2.85;1.35;;;1.80;99.90;;;;;;5051383;28;20127;-81
2021/12/02 08:03:47;;;;;;;0.90;0.50;;;1.80;99.90;;;;;;5066071;28;20049;-81
2021/12/02 08:06:15;;;;;;;3.40;0.60;;;1.80;99.90;;;;;;5033922;28;20041;-81
2021/12/02 08:08:42;;;;;;;0.93;0.60;;;1.90;99.90;;;;;;5066474;28;20079;-81
2021/12/02 08:11:09;;;;;;;2.30;0.70;;;2.50;99.90;;;;;;5067455;28;20102;-81
2021/12/02 08:13:35;;;;;;;3.13;1.13;;;2.00;99.90;;;;;;5067202;28;20131;-81
2021/12/02 08:16:02;;;;;;;2.67;1.30;;;2.10;99.90;;;;;;5065955;28;20052;-81
2021/12/02 08:18:28;;;;;;;2.60;1.20;;;2.80;99.90;;;;;;5034815;28;20139;-81
2021/12/02 08:20:54;;;;;;;2.53;1.05;;;2.30;99.90;;;;;;5065577;28;20187;-81
2021/12/02 08:23:21;;;;;;;2.10;0.90;;;2.40;99.90;;;;;;5067262;28;20192;-81
2021/12/02 08:25:47;;;;;;;5.28;1.33;;;2.40;99.90;;;;;;5066516;28;20105;-81
2021/12/02 08:28:13;;;;;;;5.28;1.33;;;2.50;99.90;;;;;;5085543;28;20044;-81
2021/12/02 08:30:40;;;;;;;2.22;1.27;;;2.50;99.90;;;;;;5050158;28;20048;-81
2021/12/02 08:33:07;;;;;;;1.02;0.82;;;2.60;99.90;;;;;;5084821;28;20048;-81
2021/12/02 08:35:34;;;;;;;2.85;1.75;;;2.70;99.90;;;;;;5085810;28;20609;-81
2021/12/02 08:38:05;;;;;;;4.13;1.98;;;2.70;99.90;;;;;;5066750;28;20040;-81
2021/12/02 08:40:35;;;;;;;6.80;2.20;;;2.80;99.90;;;;;;5066263;28;20048;-81
2021/12/02 08:43:05;;;;;;;6.60;2.17;;;2.90;99.90;;;;;;5049821;28;20067;-81
2021/12/02 08:45:31;;;;;;;3.33;1.90;;;3.00;99.90;;;;;;5064989;28;20577;-81
2021/12/02 08:47:59;;;;;;;2.50;1.80;;;3.00;99.90;;;;;;5066453;28;20566;-81
2021/12/02 08:50:25;;;;;;;5.97;1.60;;;3.00;99.90;;;;;;5066973;28;20083;-81
2021/12/02 08:52:53;;;;;;;2.47;1.60;;;3.10;99.90;;;;;;5068399;28;20485;-81
2021/12/02 08:55:21;;;;;;;2.10;1.63;;;3.10;99.90;;;;;;5066784;28;20067;-81
2021/12/02 08:57:51;;;;;;;2.97;1.70;;;3.20;99.90;;;;;;5064290;28;20054;-81
2021/12/02 09:00:21;;;;;;;4.20;1.52;;;3.20;99.90;;;;;;5065500;28;20079;-81
2021/12/02 09:02:47;;;;;;;1.58;1.30;;;3.90;99.90;;;;;;5049688;28;20621;-81
2021/12/02 09:05:16;;;;;;;1.75;1.42;;;3.20;99.90;;;;;;5049932;28;20052;-81
2021/12/02 09:07:42;;;;;;;4.65;1.23;;;4.10;99.90;;;;;;5031824;28;20036;-81
2021/12/02 09:10:12;;;;;;;1.98;1.20;;;3.20;99.90;;;;;;5049037;28;20403;-81
2021/12/02 09:12:38;;;;;;;2.55;0.98;;;3.20;99.90;;;;;;5049705;28;20047;-81
2021/12/02 09:15:08;;;;;;;1.65;1.13;;;3.20;99.90;;;;;;5050395;28;20534;-81
2021/12/02 09:17:33;;;;;;;3.03;1.23;;;3.20;99.90;;;;;;5049313;28;20463;-81
2021/12/02 09:19:59;;;;;;;1.27;0.73;;;3.40;99.90;;;;;;5065072;28;20165;-81
2021/12/02 09:22:25;;;;;;;2.30;0.95;;;4.80;99.90;;;;;;5067371;28;20048;-81
2021/12/02 09:24:51;;;;;;;2.15;0.85;;;3.30;99.90;;;;;;5065790;28;20056;-81
2021/12/02 09:27:19;;;;;;;0.90;0.60;;;3.40;99.90;;;;;;5066052;28;20039;-81
2021/12/02 09:29:45;;;;;;;3.42;1.27;;;3.30;99.90;;;;;;5047184;28;20086;-81
2021/12/02 09:32:13;;;;;;;2.17;0.38;;;3.30;99.90;;;;;;5066257;28;20133;-81
2021/12/02 09:34:39;;;;;;;3.15;0.73;;;3.30;99.90;;;;;;5066336;28;20047;-81
2021/12/02 09:37:05;;;;;;;2.65;0.60;;;3.30;99.90;;;;;;5065368;28;20048;-81
2021/12/02 09:39:32;;;;;;;1.60;0.68;;;3.20;99.90;;;;;;5050194;28;20054;-82
2021/12/02 09:41:59;;;;;;;3.15;0.75;;;4.90;99.90;;;;;;5049561;28;20056;-82
2021/12/02 09:44:25;;;;;;;1.42;0.55;;;3.10;99.90;;;;;;5066678;28;20137;-82
2021/12/02 09:46:51;;;;;;;2.88;0.50;;;3.10;99.90;;;;;;5065172;28;20537;-82
2021/12/02 09:49:17;;;;;;;2.97;0.40;;;3.00;99.90;;;;;;5047866;28;20056;-81
2021/12/02 09:52:03;;;;;;;0.30;0.20;;;2.80;99.90;;;;;;5046887;28;20125;-80
2021/12/02 09:54:57;;;;;;;0.40;0.30;;;2.50;99.90;;;;;;5065826;28;20048;-80
2021/12/02 09:57:25;;;;;;;0.70;0.30;;;2.30;99.90;;;;;;5066091;28;20605;-81
2021/12/02 09:59:52;;;;;;;1.45;0.40;;;2.20;99.90;;;;;;5048795;28;20050;-82
2021/12/02 10:02:19;;;;;;;2.13;0.55;;;2.10;99.90;;;;;;5049344;28;20048;-82
2021/12/02 10:05:05;;;;;;;1.20;0.22;;;3.70;99.90;;;;;;5047820;28;20503;-82
2021/12/02 10:07:44;;;;;;;5.55;0.28;;;4.10;99.90;;;;;;5049146;28;20087;-82
2021/12/02 10:12:49;;;;;;;2.10;0.30;;;3.20;99.90;;;;;;5067181;28;20135;-81
2021/12/02 10:15:17;;;;;;;0.57;0.20;;;2.00;99.90;;;;;;5053119;28;20040;-80
2021/12/02 10:23:04;;;;;;;1.65;0.15;;;2.00;99.90;;;;;;5068454;28;20465;-80
2021/12/02 10:25:32;;;;;;;2.67;0.40;;;2.00;99.90;;;;;;5051677;28;20107;-81
2021/12/02 10:28:07;;;;;;;3.47;1.20;;;1.60;99.90;;;;;;5069838;28;20044;-80
2021/12/02 10:30:33;;;;;;;1.73;0.90;;;3.50;99.90;;;;;;5069342;28;20102;-81
2021/12/02 10:32:59;;;;;;;1.92;1.35;;;2.30;99.90;;;;;;5036175;28;20087;-81
2021/12/02 10:35:46;;;;;;;0.88;0.45;;;2.40;99.90;;;;;;5070283;28;20080;-80
2021/12/02 10:38:39;;;;;;;3.70;0.65;;;2.40;99.90;;;;;;5068626;28;20079;-80
2021/12/02 10:41:16;;;;;;;2.88;0.50;;;2.40;99.90;;;;;;5069956;28;20050;-81
2021/12/02 10:44:07;;;;;;;1.80;0.55;;;2.40;99.90;;;;;;5053184;28;20510;-80
2021/12/02 10:46:40;;;;;;;1.73;0.60;;;2.40;99.90;;;;;;5067757;28;20052;-81
2021/12/02 10:49:14;;;;;;;3.38;0.80;;;3.70;99.90;;;;;;5069479;28;20514;-81
2021/12/02 10:51:54;;;;;;;6.40;0.80;;;2.80;99.90;;;;;;5068723;28;20381;-81
2021/12/02 10:54:31;;;;;;;1.40;0.32;;;2.40;99.90;;;;;;5068879;28;20036;-81
2021/12/02 10:57:10;;;;;;;0.60;0.35;;;2.30;99.90;;;;;;5052063;28;20437;-81
2021/12/02 10:59:39;;;;;;;2.25;0.30;;;2.30;99.90;;;;;;5066760;28;20050;-82
2021/12/02 11:02:29;;;;;;;1.00;0.40;;;2.30;99.90;;;;;;5068687;28;20040;-81
2021/12/02 11:05:24;;;;;;;2.38;0.30;;;2.30;99.90;;;;;;5068595;28;20055;-81
2021/12/02 11:07:57;;;;;;;2.83;0.22;;;2.30;99.90;;;;;;5067822;28;20117;-81
2021/12/02 11:10:24;;;;;;;2.13;0.13;;;2.10;99.90;;;;;;5068643;28;20137;-82
2021/12/02 11:12:53;;;;;;;0.10;0.10;;;2.20;99.90;;;;;;5051344;28;20097;-81
2021/12/02 11:15:24;;;;;;;0.55;0.20;;;2.20;99.90;;;;;;5068700;28;20048;-81
2021/12/02 11:17:53;;;;;;;0.80;0.20;;;2.20;99.90;;;;;;5052077;28;20514;-81
2021/12/02 11:20:39;;;;;;;0.10;0.10;;;2.30;99.90;;;;;;5067094;28;20483;-80
2021/12/02 11:23:15;;;;;;;0.17;0.10;;;2.30;99.90;;;;;;5087518;28;20048;-81
2021/12/02 11:26:02;;;;;;;0.70;0.52;;;2.30;99.90;;;;;;5068088;28;20051;-81
2021/12/02 11:28:31;;;;;;;4.80;0.32;;;2.40;99.90;;;;;;5086409;28;20086;-81
2021/12/02 11:31:06;;;;;;;0.10;0.10;;;2.40;99.90;;;;;;5086423;28;20047;-80
2021/12/02 11:33:37;;;;;;;0.50;0.30;;;2.50;99.90;;;;;;5066898;28;20165;-81
2021/12/02 11:36:04;;;;;;;3.15;0.60;;;2.40;99.90;;;;;;5068094;28;20533;-81
2021/12/02 11:38:32;;;;;;;1.05;0.30;;;2.50;99.90;;;;;;5066597;28;20040;-80
2021/12/02 11:41:04;;;;;;;3.00;0.30;;;2.40;99.90;;;;;;5050848;28;20050;-80
2021/12/02 11:43:36;;;;;;;0.90;0.32;;;2.40;99.90;;;;;;5067487;28;20048;-81
2021/12/02 11:46:04;;;;;;;0.20;0.20;;;3.10;99.90;;;;;;5047919;28;20047;-80
2021/12/02 11:48:37;;;;;;;2.88;0.60;;;2.30;99.90;;;;;;5068835;28;20074;-81
2021/12/02 11:51:10;;;;;;;1.02;0.60;;;4.20;99.90;;;;;;5066888;28;20036;-82
2021/12/02 11:53:53;;;;;;;2.53;0.30;;;2.30;99.90;;;;;;5049833;28;20139;-82
2021/12/02 11:56:21;;;;;;;;;;;2.30;99.90;;;;;;5051593;28;20040;-81
2021/12/02 11:58:47;;;;;;;1.67;0.65;;;2.30;99.90;;;;;;5067020;28;19970;-81
2021/12/02 12:01:22;;;;;;;0.75;0.50;;;2.30;99.90;;;;;;5051425;28;20051;-82
2021/12/02 12:03:53;;;;;;;0.70;0.30;;;2.40;99.90;;;;;;5050170;28;20047;-83
2021/12/02 12:06:29;;;;;;;0.60;0.30;;;4.20;99.90;;;;;;5067595;28;20044;-81
2021/12/02 12:08:57;;;;;;;4.38;0.10;;;2.60;99.90;;;;;;5050182;28;20050;-81
2021/12/02 12:11:31;;;;;;;1.30;0.17;;;3.90;99.90;;;;;;5050441;28;20398;-81
2021/12/02 12:13:59;;;;;;;0.28;0.20;;;2.70;99.90;;;;;;5051346;28;20044;-82
2021/12/02 12:16:36;;;;;;;1.20;0.20;;;2.70;99.90;;;;;;5066218;28;20503;-81
2021/12/02 12:19:26;;;;;;;0.38;0.15;;;2.80;99.90;;;;;;5067913;28;20048;-82
2021/12/02 12:22:01;;;;;;;2.50;0.22;;;2.80;99.90;;;;;;5067501;28;20109;-82
2021/12/02 12:24:49;;;;;;;1.23;0.10;;;2.80;99.90;;;;;;5065151;28;20052;-82
2021/12/02 12:27:29;;;;;;;0.15;0.10;;;2.70;99.90;;;;;;5067758;28;20083;-82
2021/12/02 12:30:01;;;;;;;3.50;0.40;;;2.60;99.90;;;;;;5065832;28;20048;-82
2021/12/02 12:35:48;;;;;;;0.90;0.20;;;2.50;99.90;;;;;;5067800;28;20352;-82
2021/12/02 12:38:20;;;;;;;0.10;0.10;;;3.00;99.90;;;;;;5065481;28;20040;-82
2021/12/02 12:40:49;;;;;;;0.10;0.10;;;2.70;99.90;;;;;;5066955;28;20103;-81
2021/12/02 12:43:18;;;;;;;0.00;0.00;;;2.80;99.90;;;;;;5066405;28;20495;-82
2021/12/02 12:45:44;;;;;;;0.10;0.10;;;2.80;99.90;;;;;;5065776;28;20051;-82
2021/12/02 12:48:24;;;;;;;0.25;0.17;;;4.40;99.90;;;;;;5034126;28;20040;-82
2021/12/02 12:50:50;;;;;;;0.10;0.10;;;3.00;99.90;;;;;;5048334;28;20044;-82
2021/12/02 12:53:34;;;;;;;0.17;0.10;;;3.10;99.90;;;;;;5050178;28;20062;-82
2021/12/02 12:56:13;;;;;;;0.20;0.20;;;3.20;99.90;;;;;;5050279;28;20048;-82
2021/12/02 12:59:00;;;;;;;0.30;0.20;;;3.30;99.90;;;;;;5084587;28;20079;-82
2021/12/02 13:01:28;;;;;;;0.20;0.15;;;3.40;99.90;;;;;;5085055;28;20123;-82
2021/12/02 13:04:14;;;;;;;0.25;0.10;;;3.70;99.90;;;;;;5064541;28;20487;-81
2021/12/02 13:06:56;;;;;;;0.10;0.10;;;5.20;99.90;;;;;;5063441;28;20056;-82
2021/12/02 13:09:52;;;;;;;2.63;0.28;;;3.60;99.90;;;;;;5062321;28;20060;-82
2021/12/02 13:12:21;;;;;;;0.10;0.10;;;3.60;99.90;;;;;;5045735;28;20067;-82
2021/12/02 13:14:50;;;;;;;0.57;0.20;;;3.80;99.90;;;;;;5045997;28;20052;-82
2021/12/02 13:17:39;;;;;;;1.35;0.17;;;3.90;99.90;;;;;;5064062;28;20533;-82
2021/12/02 13:20:13;;;;;;;1.40;0.20;;;4.00;99.90;;;;;;5065174;28;20123;-83
2021/12/02 13:22:39;;;;;;;0.10;0.10;;;4.20;99.90;;;;;;5065013;28;20055;-82
2021/12/02 13:25:40;;;;;;;0.22;0.10;;;4.30;99.90;;;;;;5064111;28;20041;-83
2021/12/02 13:28:17;;;;;;;1.35;0.20;;;4.50;99.90;;;;;;5063401;28;20049;-82
2021/12/02 13:30:47;;;;;;;3.10;0.10;;;4.50;99.90;;;;;;5063307;28;20059;-81
2021/12/02 13:33:13;;;;;;;5.85;0.25;;;4.40;99.90;;;;;;5060828;28;20525;-81
2021/12/02 13:35:39;;;;;;;1.00;0.20;;;4.90;99.90;;;;;;5065075;28;20499;-81
2021/12/02 13:38:05;;;;;;;1.95;0.10;;;4.20;99.90;;;;;;5062525;28;20049;-81
2021/12/02 13:40:40;;;;;;;0.65;0.20;;;4.10;99.90;;;;;;5063571;28;20442;-81
2021/12/02 13:43:06;;;;;;;3.42;0.15;;;4.00;99.90;;;;;;5046452;28;20563;-82
2021/12/02 13:45:34;;;;;;;2.53;0.20;;;4.00;99.90;;;;;;5066725;28;20074;-81